This is the latest recevied weather packets stored in our database for station/object K4AGR-13. If no packets are shown the sender has not sent any weather packets the latest 10 day(s).
| Time | Temp. | Humidity | Pressure | Rain* | Wind** | Luminosity | Snow |
|---|---|---|---|---|---|---|---|
| 1777813639 | 16.11° C | 56% | 1020.4 hPa | 0 mm | - | 352 W/m² | - |
| 1777813336 | 15.56° C | 60% | 1020.7 hPa | 0 mm | - | 328 W/m² | - |
| 1777811823 | 13.89° C | 68% | 1020.4 hPa | 0 mm | - | 218 W/m² | - |
| 1777811521 | 13.89° C | 70% | 1020.5 hPa | 0 mm | - | 199 W/m² | - |
| 1777811216 | 13.33° C | 69% | 1020.5 hPa | 0 mm | - | 180 W/m² | - |
| 1777810914 | 13.33° C | 70% | 1020.3 hPa | 0 mm | - | 161 W/m² | - |
| 1777810610 | 12.78° C | 73% | 1020.4 hPa | 0 mm | - | 143 W/m² | - |
| 1777810308 | 12.78° C | 72% | 1020.3 hPa | 0 mm | - | 79 W/m² | - |
| 1777809398 | 11.11° C | 80% | 1020.3 hPa | 0 mm | - | 40 W/m² | - |
| 1777809096 | 10.56° C | 81% | 1020.2 hPa | 0 mm | - | 39 W/m² | - |
| 1777808188 | 10° C | 82% | 1019.9 hPa | 0 mm | - | 45 W/m² | - |
| 1777807886 | 10° C | 81% | 1019.9 hPa | 0 mm | - | 40 W/m² | - |
| 1777807584 | 9.44° C | 83% | 1019.9 hPa | 0 mm | - | 33 W/m² | - |
| 1777806977 | 9.44° C | 84% | 1019.6 hPa | 0 mm | - | 20 W/m² | - |
| 1777805762 | 8.33° C | 89% | 1019.2 hPa | 0 mm | - | 4 W/m² | - |
| 1777803038 | 7.78° C | 90% | 1019 hPa | 0 mm | - | 0 W/m² | - |
| 1777802735 | 7.78° C | 91% | 1018.9 hPa | 0 mm | - | 0 W/m² | - |
| 1777802130 | 7.78° C | 90% | 1018.8 hPa | 0 mm | - | 0 W/m² | - |
| 1777801828 | 7.78° C | 90% | 1018.8 hPa | 0 mm | - | 0 W/m² | - |
| 1777801221 | 8.33° C | 89% | 1018.6 hPa | 0 mm | - | 0 W/m² | - |
| 1777800919 | 8.33° C | 89% | 1018.8 hPa | 0 mm | - | 0 W/m² | - |
| 1777800615 | 8.33° C | 90% | 1018.7 hPa | 0 mm | - | 0 W/m² | - |
| 1777800311 | 8.33° C | 89% | 1018.9 hPa | 0 mm | - | 0 W/m² | - |
| 1777800008 | 8.33° C | 89% | 1018.7 hPa | 0 mm | - | 0 W/m² | - |
| 1777799702 | 8.33° C | 90% | 1018.6 hPa | 0 mm | - | 0 W/m² | - |
* Rain latest hour (hover to see other rain measurements)
** Current wind speed in m/s (hover to see current wind gust speed)